Time;durP1;ratioP1;P1;durP2;ratioP2;P2;SDS_P1;SDS_P2;PMS_P1;PMS_P2;Temp;Humidity;BMP_temperature;BMP_pressure;BME280_temperature;BME280_humidity;BME280_pressure;Samples;Min_cycle;Max_cycle;Signal;HPM_P1;HPM_P2
2022/03/03 00:00:22;;;;;;;26.23;12.82;;;;;;;2.88;43.54;100176.03;4451366;32;34451;-83
2022/03/03 00:02:50;;;;;;;29.95;12.90;;;;;;;2.78;43.65;100172.59;4459444;32;34707;-83
2022/03/03 00:05:19;;;;;;;34.72;15.07;;;;;;;2.82;43.48;100162.16;4453571;32;33453;-82
2022/03/03 00:07:46;;;;;;;27.87;12.60;;;;;;;2.80;43.60;100169.13;4446384;32;34099;-82
2022/03/03 00:10:14;;;;;;;27.67;12.07;;;;;;;2.64;44.71;100175.28;4449825;32;33703;-83
2022/03/03 00:12:42;;;;;;;28.52;12.75;;;;;;;2.54;44.85;100176.22;4461522;32;33977;-82
2022/03/03 00:15:10;;;;;;;31.48;11.10;;;;;;;2.76;44.14;100169.16;4459122;32;33907;-82
2022/03/03 00:17:38;;;;;;;35.58;13.27;;;;;;;2.64;44.06;100177.03;4458869;32;33490;-82
2022/03/03 00:20:06;;;;;;;29.25;13.32;;;;;;;2.33;44.73;100165.87;4453593;32;33552;-82
2022/03/03 00:22:34;;;;;;;24.10;11.80;;;;;;;2.61;44.40;100167.50;4446377;32;33803;-81
2022/03/03 00:25:02;;;;;;;23.17;12.23;;;;;;;2.65;44.36;100164.00;4459936;32;34790;-82
2022/03/03 00:27:31;;;;;;;31.85;12.82;;;;;;;2.52;44.94;100167.56;4454963;32;33825;-82
2022/03/03 00:29:58;;;;;;;25.52;11.40;;;;;;;2.59;44.64;100166.63;4446475;32;32137;-82
2022/03/03 00:32:26;;;;;;;21.12;10.80;;;;;;;2.53;44.70;100164.06;4461670;32;33499;-82
2022/03/03 00:34:54;;;;;;;23.42;10.05;;;;;;;2.29;45.50;100165.91;4454679;32;33951;-82
2022/03/03 00:37:22;;;;;;;20.00;9.70;;;;;;;2.48;44.88;100168.44;4459697;32;33485;-82
2022/03/03 00:39:49;;;;;;;22.02;10.60;;;;;;;2.37;45.20;100167.59;4445735;32;33388;-82
2022/03/03 00:42:17;;;;;;;23.10;10.90;;;;;;;2.58;44.52;100169.25;4453889;32;33965;-82
2022/03/03 00:44:45;;;;;;;26.85;11.50;;;;;;;2.52;44.59;100167.56;4447895;32;33993;-82
2022/03/03 00:47:13;;;;;;;27.00;10.88;;;;;;;2.56;44.70;100172.75;4459141;32;33896;-82
2022/03/03 00:49:40;;;;;;;21.50;9.95;;;;;;;2.49;44.81;100167.56;4447658;32;33716;-81
2022/03/03 00:52:08;;;;;;;21.58;10.07;;;;;;;2.19;45.28;100160.75;4457893;32;33977;-83
2022/03/03 00:54:36;;;;;;;19.05;9.70;;;;;;;2.10;45.72;100159.06;4453594;32;33533;-82
2022/03/03 00:57:04;;;;;;;17.75;9.20;;;;;;;1.74;46.54;100158.28;4446985;32;33373;-82
2022/03/03 00:59:31;;;;;;;20.50;10.75;;;;;;;2.05;46.02;100156.47;4434474;32;33189;-82
2022/03/03 01:01:59;;;;;;;21.00;9.93;;;;;;;2.15;45.75;100156.44;4441500;32;33706;-82
2022/03/03 01:04:27;;;;;;;16.10;9.10;;;;;;;2.24;45.53;100152.03;4446911;32;32896;-82
2022/03/03 01:06:54;;;;;;;23.15;9.95;;;;;;;2.41;45.14;100145.87;4452365;32;32695;-82
2022/03/03 01:09:22;;;;;;;35.10;11.23;;;;;;;2.20;46.05;100154.66;4454330;32;32763;-82
2022/03/03 01:11:49;;;;;;;19.12;10.50;;;;;;;2.38;45.46;100148.53;4449517;32;34298;-82
2022/03/03 01:14:21;;;;;;;23.58;10.55;;;;;;;2.15;45.78;100146.00;4453370;32;33884;-81
2022/03/03 01:16:52;;;;;;;21.75;9.93;;;;;;;1.88;46.78;100141.75;4441227;32;33192;-82
2022/03/03 01:19:20;;;;;;;27.23;10.77;;;;;;;2.04;46.20;100133.00;4454473;32;33624;-81
2022/03/03 01:21:47;;;;;;;22.62;10.52;;;;;;;2.09;45.84;100132.97;4441333;32;34433;-82
2022/03/03 01:24:15;;;;;;;20.52;9.15;;;;;;;2.09;46.26;100136.50;4453088;32;33255;-82
2022/03/03 01:26:43;;;;;;;18.80;9.55;;;;;;;2.07;46.07;100130.41;4441967;32;33403;-82
2022/03/03 01:29:10;;;;;;;25.62;9.80;;;;;;;1.79;47.00;100130.47;4453406;32;34268;-81
2022/03/03 01:31:38;;;;;;;19.65;9.73;;;;;;;2.07;46.21;100117.38;4453086;32;33787;-81
2022/03/03 01:34:06;;;;;;;20.12;9.43;;;;;;;1.99;46.42;100119.13;4461245;32;33794;-82
2022/03/03 01:36:35;;;;;;;29.25;10.30;;;;;;;2.13;46.38;100117.34;4445793;32;33926;-82
2022/03/03 01:39:05;;;;;;;20.10;9.98;;;;;;;1.98;46.41;100117.41;4446032;32;32580;-82
2022/03/03 01:41:34;;;;;;;20.20;9.98;;;;;;;1.93;46.73;100120.03;4454593;32;34473;-82
2022/03/03 01:44:03;;;;;;;20.10;9.90;;;;;;;1.99;46.73;100114.81;4446821;32;32469;-81
2022/03/03 01:46:31;;;;;;;20.00;9.45;;;;;;;2.16;46.01;100112.13;4440780;32;32103;-81
2022/03/03 01:48:59;;;;;;;20.45;9.23;;;;;;;1.98;46.23;100107.84;4461270;32;34317;-81
2022/03/03 01:51:26;;;;;;;23.23;10.05;;;;;;;1.88;46.50;100110.50;4461219;32;32937;-81
2022/03/03 01:53:54;;;;;;;20.83;10.43;;;;;;;1.67;47.33;100112.31;4452602;32;33472;-81
2022/03/03 01:56:22;;;;;;;29.75;11.57;;;;;;;1.62;47.63;100108.84;4459704;32;33049;-82
2022/03/03 01:58:50;;;;;;;24.15;10.48;;;;;;;1.79;47.28;100109.66;4453354;32;34517;-82
2022/03/03 02:01:18;;;;;;;22.37;10.57;;;;;;;1.94;46.68;100098.31;4441521;32;32366;-82
2022/03/03 02:03:46;;;;;;;23.48;10.85;;;;;;;1.75;47.08;100100.12;4458753;32;33806;-82
2022/03/03 02:06:14;;;;;;;19.60;10.00;;;;;;;1.80;47.41;100097.50;4457306;32;33303;-83
2022/03/03 02:08:41;;;;;;;25.58;9.82;;;;;;;1.86;46.85;100089.69;4446118;32;33791;-82
2022/03/03 02:11:10;;;;;;;20.80;10.05;;;;;;;1.93;46.78;100093.12;4447162;32;33464;-82
2022/03/03 02:13:38;;;;;;;19.77;9.48;;;;;;;1.34;47.96;100096.78;4454128;32;33679;-82
2022/03/03 02:16:08;;;;;;;22.95;10.13;;;;;;;1.51;47.75;100095.84;4447130;32;32058;-82
2022/03/03 02:18:40;;;;;;;22.27;9.73;;;;;;;1.65;47.18;100090.59;4449132;32;33132;-82
2022/03/03 02:21:15;;;;;;;19.92;9.13;;;;;;;1.43;48.03;100084.63;4453841;32;33229;-82
2022/03/03 02:23:43;;;;;;;23.75;9.85;;;;;;;1.34;48.26;100087.22;4453033;32;34884;-82
2022/03/03 02:26:19;;;;;;;20.60;9.13;;;;;;;1.33;48.59;100077.69;4452938;32;33360;-82
2022/03/03 02:28:48;;;;;;;19.77;10.25;;;;;;;1.38;48.39;100075.09;4453138;32;33604;-82
2022/03/03 02:31:16;;;;;;;20.75;8.95;;;;;;;1.31;48.42;100075.97;4453552;32;33929;-83
2022/03/03 02:33:43;;;;;;;17.12;9.57;;;;;;;1.46;48.15;100081.13;4446832;32;33714;-83
2022/03/03 02:36:27;;;;;;;21.42;9.68;;;;;;;1.37;48.61;100076.78;4433576;32;34238;-81
2022/03/03 02:38:57;;;;;;;18.65;9.70;;;;;;;1.31;48.83;100075.97;4445671;32;33912;-83
2022/03/03 02:41:26;;;;;;;15.63;9.02;;;;;;;1.53;48.02;100077.66;4461585;32;34017;-82
2022/03/03 02:43:54;;;;;;;23.40;9.27;;;;;;;1.38;48.10;100077.69;4438986;32;34001;-82
2022/03/03 02:46:22;;;;;;;20.10;9.82;;;;;;;1.22;48.64;100082.91;4445856;32;32757;-82
2022/03/03 02:48:50;;;;;;;14.77;7.95;;;;;;;1.27;48.53;100083.75;4456322;32;33686;-83
2022/03/03 02:51:18;;;;;;;16.23;9.77;;;;;;;0.97;49.53;100083.78;4446570;32;34132;-82
2022/03/03 02:53:46;;;;;;;21.27;8.95;;;;;;;0.85;49.76;100081.19;4454210;32;33343;-83
2022/03/03 02:56:14;;;;;;;20.88;9.38;;;;;;;1.09;49.11;100070.78;4454778;32;33139;-84
2022/03/03 02:58:42;;;;;;;22.50;9.93;;;;;;;1.22;48.83;100072.50;4454634;32;33884;-83
2022/03/03 03:01:10;;;;;;;22.00;9.95;;;;;;;1.28;48.51;100072.50;4461196;32;34050;-83
2022/03/03 03:03:38;;;;;;;23.30;10.52;;;;;;;1.20;48.65;100063.84;4444392;32;32844;-82
2022/03/03 03:06:05;;;;;;;21.10;9.20;;;;;;;1.27;48.31;100060.34;4450950;32;32080;-82
2022/03/03 03:08:33;;;;;;;27.58;11.38;;;;;;;1.28;48.27;100056.91;4442912;32;34248;-82
2022/03/03 03:11:01;;;;;;;29.33;10.85;;;;;;;0.96;49.18;100066.47;4454856;32;34846;-81
2022/03/03 03:13:28;;;;;;;29.10;11.25;;;;;;;0.97;49.48;100066.47;4434017;32;32321;-81
2022/03/03 03:15:56;;;;;;;23.05;9.15;;;;;;;1.15;49.23;100075.13;4448222;32;33246;-81
2022/03/03 03:18:24;;;;;;;22.65;10.07;;;;;;;0.95;49.77;100072.50;4461756;32;33877;-81
2022/03/03 03:20:53;;;;;;;23.17;10.55;;;;;;;1.14;49.04;100069.06;4456084;32;34684;-81
2022/03/03 03:23:22;;;;;;;23.40;11.23;;;;;;;1.14;48.77;100068.16;4449587;32;33207;-81
2022/03/03 03:25:50;;;;;;;21.58;9.27;;;;;;;1.09;48.97;100062.09;4447408;32;34168;-82
2022/03/03 03:28:19;;;;;;;33.05;12.13;;;;;;;0.64;50.50;100062.12;4437115;32;33293;-83
2022/03/03 03:30:47;;;;;;;23.70;10.82;;;;;;;0.97;49.59;100065.59;4447516;32;34710;-82
2022/03/03 03:33:15;;;;;;;31.50;11.88;;;;;;;0.80;50.40;100069.91;4459778;32;33512;-84
2022/03/03 03:35:43;;;;;;;23.10;10.27;;;;;;;0.86;49.89;100068.22;4462089;32;33847;-84
2022/03/03 03:38:11;;;;;;;20.55;10.43;;;;;;;0.72;50.67;100076.00;4454431;32;33648;-84
2022/03/03 03:40:39;;;;;;;23.50;11.27;;;;;;;0.77;50.40;100071.66;4432484;32;33003;-82
2022/03/03 03:43:07;;;;;;;25.67;10.80;;;;;;;0.87;50.07;100074.28;4460101;32;33470;-82
2022/03/03 03:45:35;;;;;;;20.80;10.77;;;;;;;0.63;50.83;100070.78;4442495;32;32042;-83
2022/03/03 03:48:03;;;;;;;20.75;10.02;;;;;;;0.92;49.99;100072.53;4458934;32;33550;-83
2022/03/03 03:50:31;;;;;;;17.85;10.07;;;;;;;1.00;49.58;100057.81;4441893;32;33704;-82
2022/03/03 03:52:59;;;;;;;22.95;10.48;;;;;;;0.92;49.58;100059.53;4449308;32;33842;-83
2022/03/03 03:55:27;;;;;;;17.58;9.27;;;;;;;0.92;49.67;100077.72;4446851;32;33044;-82
2022/03/03 03:57:54;;;;;;;16.50;9.63;;;;;;;0.90;49.89;100076.84;4439850;32;34262;-82
2022/03/03 04:00:22;;;;;;;19.95;10.25;;;;;;;0.81;50.11;100074.25;4460378;32;33602;-81
2022/03/03 04:02:50;;;;;;;23.52;10.18;;;;;;;0.69;50.53;100077.72;4455102;32;34113;-82
2022/03/03 04:05:18;;;;;;;22.87;8.98;;;;;;;0.29;51.83;100082.00;4454265;32;33256;-81
2022/03/03 04:07:45;;;;;;;23.80;9.48;;;;;;;0.22;52.17;100079.38;4468147;32;33678;-81
2022/03/03 04:10:13;;;;;;;21.75;10.60;;;;;;;0.67;50.64;100072.53;4451083;32;33042;-81
2022/03/03 04:12:41;;;;;;;28.60;11.63;;;;;;;0.81;49.98;100074.25;4470434;32;33531;-81
2022/03/03 04:15:09;;;;;;;19.80;10.23;;;;;;;0.56;50.43;100070.78;4470556;32;32801;-82
2022/03/03 04:17:37;;;;;;;23.92;11.02;;;;;;;0.53;50.66;100069.06;4462926;32;33148;-82
2022/03/03 04:20:06;;;;;;;20.98;9.90;;;;;;;0.58;50.36;100066.47;4470888;32;33832;-82
2022/03/03 04:22:34;;;;;;;21.25;10.38;;;;;;;0.54;50.56;100060.38;4465189;32;34010;-81
2022/03/03 04:25:03;;;;;;;23.23;10.50;;;;;;;0.55;50.72;100059.50;4457005;32;34043;-82
2022/03/03 04:27:32;;;;;;;20.48;9.63;;;;;;;0.62;50.64;100063.87;4469784;32;33917;-81
2022/03/03 04:30:00;;;;;;;22.25;10.43;;;;;;;0.62;50.26;100056.06;4461711;32;33026;-82
2022/03/03 04:32:29;;;;;;;17.92;10.40;;;;;;;0.69;49.88;100055.19;4455979;32;34782;-82
2022/03/03 04:34:57;;;;;;;26.65;10.68;;;;;;;0.65;49.96;100053.47;4457234;32;31499;-81
2022/03/03 04:37:25;;;;;;;23.10;9.43;;;;;;;0.39;50.02;100056.03;4468074;32;33282;-82
2022/03/03 04:39:53;;;;;;;20.62;11.20;;;;;;;0.22;50.82;100037.81;4469239;32;34418;-82
2022/03/03 04:42:20;;;;;;;21.67;9.80;;;;;;;0.44;50.30;100043.94;4442279;32;33759;-83
2022/03/03 04:44:48;;;;;;;29.02;11.30;;;;;;;0.50;50.38;100048.25;4469532;32;34131;-82
2022/03/03 04:47:15;;;;;;;23.85;10.23;;;;;;;0.42;51.03;100055.16;4469211;32;33580;-82
2022/03/03 04:49:43;;;;;;;20.08;9.95;;;;;;;0.17;51.80;100060.31;4463056;32;33561;-82
2022/03/03 04:52:11;;;;;;;22.45;10.32;;;;;;;0.33;51.30;100055.16;4468839;32;34518;-82
2022/03/03 04:54:39;;;;;;;25.17;11.12;;;;;;;0.42;50.67;100053.44;4456243;32;33504;-82
2022/03/03 04:57:06;;;;;;;23.23;10.80;;;;;;;0.21;51.07;100062.06;4469887;32;34181;-82
2022/03/03 04:59:34;;;;;;;19.70;9.68;;;;;;;0.17;51.27;100060.31;4456333;32;33686;-83
2022/03/03 05:02:02;;;;;;;19.90;9.57;;;;;;;0.28;51.04;100062.94;4455696;32;33879;-82
2022/03/03 05:04:30;;;;;;;23.15;10.63;;;;;;;0.27;50.86;100056.00;4457116;32;32390;-82
2022/03/03 05:06:57;;;;;;;24.80;11.12;;;;;;;0.06;50.95;100051.66;4469317;32;33829;-82
2022/03/03 05:09:25;;;;;;;22.23;11.10;;;;;;;0.17;50.80;100047.34;4456446;32;33303;-82
2022/03/03 05:11:52;;;;;;;27.87;11.60;;;;;;;0.26;50.78;100043.91;4469308;32;33720;-81
2022/03/03 05:14:20;;;;;;;22.50;10.75;;;;;;;0.22;51.09;100047.34;4472617;32;33069;-82
2022/03/03 05:16:48;;;;;;;24.95;10.18;;;;;;;0.29;50.95;100051.69;4455724;32;33131;-82
2022/03/03 05:19:15;;;;;;;21.62;11.10;;;;;;;0.13;51.08;100050.78;4455342;32;33842;-82
2022/03/03 05:21:43;;;;;;;25.20;11.32;;;;;;;0.09;51.48;100049.03;4459217;32;33101;-82
2022/03/03 05:24:11;;;;;;;18.85;9.90;;;;;;;0.06;51.96;100051.66;4456213;32;33063;-81
2022/03/03 05:26:39;;;;;;;25.42;10.90;;;;;;;0.18;51.78;100055.97;4473433;32;33953;-81
2022/03/03 05:29:07;;;;;;;25.75;12.15;;;;;;;0.11;51.66;100052.53;4467530;32;33464;-82
2022/03/03 05:31:35;;;;;;;27.10;12.93;;;;;;;0.29;51.43;100048.25;4468691;32;33540;-81
2022/03/03 05:34:06;;;;;;;25.37;11.43;;;;;;;0.30;51.67;100050.84;4455211;32;33186;-82
2022/03/03 05:36:36;;;;;;;30.65;12.65;;;;;;;0.16;52.11;100058.59;4456313;32;33058;-81
2022/03/03 05:39:05;;;;;;;20.35;11.10;;;;;;;0.21;51.97;100056.00;4469140;32;33565;-81
2022/03/03 05:41:32;;;;;;;21.65;11.65;;;;;;;0.32;51.64;100049.09;4468732;32;33652;-83
2022/03/03 05:44:00;;;;;;;26.17;11.70;;;;;;;0.32;51.56;100048.22;4456413;32;33371;-82
2022/03/03 05:46:31;;;;;;;20.17;11.35;;;;;;;0.27;51.39;100044.75;4446634;32;34692;-81
2022/03/03 05:48:59;;;;;;;26.60;10.82;;;;;;;0.14;51.76;100044.75;4464039;32;32371;-82
2022/03/03 05:51:26;;;;;;;26.45;12.07;;;;;;;0.34;51.69;100044.78;4461906;32;33917;-82
2022/03/03 05:53:54;;;;;;;30.20;12.45;;;;;;;0.17;52.14;100049.94;4457532;32;32358;-83
2022/03/03 05:56:22;;;;;;;35.85;15.18;;;;;;;0.11;52.17;100047.31;4461215;32;34231;-83
2022/03/03 05:58:51;;;;;;;32.72;14.10;;;;;;;0.05;52.53;100047.31;4450724;32;33264;-82
2022/03/03 06:01:19;;;;;;;39.08;16.45;;;;;;;0.40;52.03;100051.72;4463059;32;33134;-82
2022/03/03 06:03:48;;;;;;;41.28;16.40;;;;;;;0.14;52.86;100060.31;4469289;32;33565;-83
2022/03/03 06:06:17;;;;;;;43.70;16.42;;;;;;;0.24;52.94;100051.69;4456177;31;33200;-82
2022/03/03 06:08:57;;;;;;;41.42;17.52;;;;;;;0.42;52.58;100053.44;4450380;31;33075;-82
2022/03/03 06:11:27;;;;;;;39.15;16.23;;;;;;;0.61;52.24;100054.31;4465253;31;33644;-82
2022/03/03 06:14:05;;;;;;;33.22;16.25;;;;;;;0.85;51.54;100061.25;4457236;32;31666;-82
2022/03/03 06:16:35;;;;;;;29.45;13.45;;;;;;;0.73;51.88;100056.94;4456928;32;34494;-85
2022/03/03 06:19:03;;;;;;;31.95;14.57;;;;;;;0.73;52.20;100056.94;4469816;32;34709;-85
2022/03/03 06:21:31;;;;;;;34.05;14.98;;;;;;;0.91;51.71;100050.87;4459180;31;35444;-85
2022/03/03 06:23:59;;;;;;;43.53;17.65;;;;;;;0.92;52.05;100051.75;4462729;32;33853;-85
2022/03/03 06:26:27;;;;;;;44.08;16.15;;;;;;;1.21;51.51;100041.28;4465259;31;33546;-85
2022/03/03 06:28:54;;;;;;;46.92;18.77;;;;;;;0.97;52.67;100050.00;4458581;31;33396;-84
2022/03/03 06:31:22;;;;;;;40.58;15.50;;;;;;;1.33;52.09;100048.19;4469915;32;34377;-87
2022/03/03 06:33:50;;;;;;;38.67;16.52;;;;;;;1.60;51.54;100047.25;4466329;32;33665;-84
2022/03/03 06:36:18;;;;;;;37.00;14.73;;;;;;;1.82;50.35;100045.44;4451037;32;33592;-85
2022/03/03 06:38:46;;;;;;;27.25;13.57;;;;;;;1.70;50.84;100047.19;4459888;32;33831;-85
2022/03/03 06:41:13;;;;;;;32.30;14.82;;;;;;;1.60;51.55;100050.72;4449836;32;32730;-85
2022/03/03 06:43:42;;;;;;;29.35;13.75;;;;;;;1.49;51.58;100055.09;4456799;32;33775;-85
2022/03/03 06:46:10;;;;;;;29.12;11.88;;;;;;;1.52;50.38;100060.31;4459138;32;34279;-85
2022/03/03 06:48:38;;;;;;;26.80;13.68;;;;;;;1.62;50.25;100062.00;4470049;32;33926;-85
2022/03/03 06:51:06;;;;;;;32.38;13.90;;;;;;;1.62;50.24;100063.75;4470493;32;34636;-85
2022/03/03 06:53:36;;;;;;;37.88;14.87;;;;;;;1.82;49.46;100064.53;4464028;32;32930;-85
2022/03/03 06:56:07;;;;;;;33.38;14.48;;;;;;;1.87;48.82;100067.13;4457280;32;33857;-85
2022/03/03 06:58:37;;;;;;;27.52;12.02;;;;;;;2.27;47.91;100053.00;4449362;32;32714;-85
2022/03/03 07:01:09;;;;;;;26.85;12.32;;;;;;;2.36;48.10;100056.44;4457734;31;34086;-85
2022/03/03 07:03:41;;;;;;;26.85;13.62;;;;;;;2.71;46.71;100057.06;4458202;31;32990;-84
2022/03/03 07:06:08;;;;;;;29.85;14.85;;;;;;;2.61;47.68;100052.81;4462439;32;33827;-85
2022/03/03 07:08:38;;;;;;;27.95;13.57;;;;;;;2.88;47.97;100056.06;4459074;31;33848;-86
2022/03/03 07:11:06;;;;;;;32.78;14.02;;;;;;;2.89;47.85;100057.78;4455311;32;33074;-85
2022/03/03 07:13:35;;;;;;;32.92;13.70;;;;;;;2.52;48.67;100058.09;4469028;32;32396;-86
2022/03/03 07:16:39;;;;;;;25.20;13.43;;;;;;;2.59;48.13;100058.88;4468277;32;33155;-85
2022/03/03 07:19:20;;;;;;;36.17;13.52;;;;;;;2.83;47.54;100049.12;4469636;31;33619;-85
2022/03/03 07:22:21;;;;;;;32.60;13.27;;;;;;;3.04;46.99;100057.66;4487685;31;32065;-85
2022/03/03 07:25:06;;;;;;;29.33;13.98;;;;;;;3.11;47.03;100054.09;4440002;32;32987;-86
2022/03/03 07:27:36;;;;;;;27.42;13.62;;;;;;;3.12;47.72;100061.06;4456650;32;33550;-86
2022/03/03 07:30:10;;;;;;;30.35;14.45;;;;;;;3.62;46.02;100051.00;4456573;32;33472;-85
2022/03/03 07:32:59;;;;;;;32.42;13.98;;;;;;;3.70;46.08;100063.03;4470783;31;35221;-85
2022/03/03 07:35:27;;;;;;;29.27;14.60;;;;;;;3.97;45.78;100053.16;4472611;32;33494;-85
2022/03/03 07:37:57;;;;;;;25.48;13.68;;;;;;;3.82;46.19;100055.06;4471505;32;33547;-85
2022/03/03 07:40:30;;;;;;;25.37;13.20;;;;;;;4.08;45.29;100056.47;4464539;32;33135;-85
2022/03/03 07:42:59;;;;;;;29.20;14.57;;;;;;;3.73;46.72;100049.09;4463362;32;32505;-85
2022/03/03 07:45:28;;;;;;;23.12;11.52;;;;;;;4.25;44.84;100035.34;4461314;31;32739;-85
2022/03/03 07:47:56;;;;;;;30.05;14.77;;;;;;;4.50;44.62;100034.09;4464350;32;34012;-85
2022/03/03 07:50:25;;;;;;;27.10;13.20;;;;;;;4.57;44.32;100029.66;4471494;32;34323;-85
2022/03/03 07:52:53;;;;;;;30.12;14.13;;;;;;;4.45;44.80;100029.84;4465334;32;32516;-85
2022/03/03 07:55:22;;;;;;;32.50;13.35;;;;;;;4.85;44.33;100020.47;4462918;32;32451;-85
2022/03/03 07:57:58;;;;;;;28.73;13.32;;;;;;;4.99;44.20;100022.84;4471357;32;33638;-85
2022/03/03 08:00:29;;;;;;;34.83;15.77;;;;;;;4.94;44.49;100018.56;4458320;32;33865;-84
2022/03/03 08:03:05;;;;;;;33.60;15.00;;;;;;;5.25;44.28;100016.28;4472575;32;32289;-85
2022/03/03 08:05:34;;;;;;;27.17;14.13;;;;;;;5.37;43.15;100016.94;4470783;32;33135;-85
2022/03/03 08:08:03;;;;;;;31.37;14.63;;;;;;;5.56;43.76;100019.19;4470455;32;34243;-85
2022/03/03 08:10:32;;;;;;;29.50;14.30;;;;;;;5.72;43.07;100019.72;4471690;32;33649;-85
2022/03/03 08:13:01;;;;;;;34.03;15.18;;;;;;;5.95;42.16;100014.06;4461330;31;33071;-85
2022/03/03 08:15:29;;;;;;;30.85;15.18;;;;;;;6.10;41.70;100014.56;4452912;31;32712;-85
2022/03/03 08:17:57;;;;;;;32.28;15.02;;;;;;;5.91;43.34;100018.47;4463015;32;32805;-85
2022/03/03 08:20:24;;;;;;;28.05;13.88;;;;;;;6.14;42.18;100004.88;4470648;32;33903;-85
2022/03/03 08:22:53;;;;;;;25.48;13.32;;;;;;;6.08;42.63;100012.91;4458246;32;33884;-85
2022/03/03 08:25:22;;;;;;;31.92;12.75;;;;;;;6.09;43.48;100004.13;4465218;32;34042;-85
2022/03/03 08:27:50;;;;;;;20.92;10.00;;;;;;;6.14;42.05;100004.88;4453802;31;34195;-85
2022/03/03 08:30:18;;;;;;;30.17;9.02;;;;;;;6.26;41.02;99996.72;4470422;32;34714;-86
2022/03/03 08:33:18;;;;;;;17.75;10.23;;;;;;;6.22;41.50;99994.22;4470746;32;33807;-85
2022/03/03 08:35:53;;;;;;;16.67;8.70;;;;;;;5.90;41.92;99998.38;4449496;32;32654;-85
2022/03/03 08:38:35;;;;;;;20.80;9.02;;;;;;;6.35;41.35;99993.87;4464297;32;33064;-85
2022/03/03 08:41:05;;;;;;;;;;;;;;;6.58;40.55;99992.50;4458262;32;34891;-85
2022/03/03 08:43:33;;;;;;;14.85;9.25;;;;;;;6.65;40.23;99999.34;4470628;32;33325;-85
2022/03/03 08:46:04;;;;;;;19.20;9.18;;;;;;;6.29;40.75;99995.81;4463332;32;32808;-85
2022/03/03 08:48:32;;;;;;;22.48;10.80;;;;;;;6.55;40.62;99990.81;4471461;32;33910;-85
2022/03/03 08:51:01;;;;;;;22.15;8.75;;;;;;;6.80;39.99;99993.69;4458104;32;33250;-85
2022/03/03 08:53:29;;;;;;;22.58;8.95;;;;;;;6.72;39.58;99979.03;4457930;32;33481;-85
2022/03/03 08:55:58;;;;;;;18.90;8.30;;;;;;;6.95;39.71;99992.44;4463849;32;32378;-85
2022/03/03 08:58:26;;;;;;;19.40;8.45;;;;;;;6.94;39.06;99980.22;4470359;32;33547;-85
2022/03/03 09:00:53;;;;;;;21.87;9.45;;;;;;;7.48;38.71;99982.25;4463134;32;34570;-85
2022/03/03 09:03:22;;;;;;;19.08;8.18;;;;;;;7.09;38.78;99985.06;4459781;31;34400;-86
2022/03/03 09:05:50;;;;;;;18.92;9.48;;;;;;;7.61;38.49;99988.03;4476415;32;32497;-86
2022/03/03 09:08:18;;;;;;;21.73;8.57;;;;;;;7.91;37.71;99979.22;4472496;31;33060;-86
2022/03/03 09:10:46;;;;;;;23.02;10.05;;;;;;;7.72;37.98;99991.19;4473464;32;34108;-85
2022/03/03 09:13:13;;;;;;;24.40;10.02;;;;;;;7.66;38.46;99980.88;4458080;32;33895;-85
2022/03/03 09:15:42;;;;;;;25.00;9.65;;;;;;;8.33;37.54;99968.28;4465035;31;32440;-86
2022/03/03 09:18:10;;;;;;;16.20;8.23;;;;;;;8.45;38.03;99975.84;4470773;32;34564;-86
2022/03/03 09:20:41;;;;;;;19.52;8.57;;;;;;;8.49;37.15;99976.59;4470469;32;33956;-86
2022/03/03 09:23:08;;;;;;;18.75;8.75;;;;;;;8.38;37.00;99981.34;4470011;32;33473;-86
2022/03/03 09:25:37;;;;;;;17.77;8.63;;;;;;;8.45;36.60;99989.00;4457389;32;33791;-85
2022/03/03 09:28:04;;;;;;;20.40;11.35;;;;;;;8.32;38.02;99990.25;4470376;32;33559;-85
2022/03/03 09:30:32;;;;;;;22.13;9.68;;;;;;;7.92;37.99;99988.81;4484449;32;33983;-86
2022/03/03 09:33:00;;;;;;;22.70;11.18;;;;;;;8.36;37.05;99996.28;4470332;32;32903;-86
2022/03/03 09:35:28;;;;;;;16.15;10.00;;;;;;;8.54;37.03;99986.97;4470474;32;32371;-86
2022/03/03 09:37:56;;;;;;;21.73;11.43;;;;;;;8.55;36.82;99980.81;4454879;31;33485;-86
2022/03/03 09:40:24;;;;;;;19.98;10.77;;;;;;;8.67;37.42;99977.75;4457079;32;33437;-86
2022/03/03 09:43:00;;;;;;;22.80;10.07;;;;;;;8.79;36.34;99974.72;4470306;32;34274;-86
2022/03/03 09:45:29;;;;;;;16.73;8.88;;;;;;;8.87;35.65;99970.03;4463961;31;33885;-86
2022/03/03 09:47:58;;;;;;;19.65;9.48;;;;;;;9.09;35.30;99964.06;4460465;31;33907;-85
2022/03/03 09:50:41;;;;;;;17.15;9.40;;;;;;;9.38;35.82;99968.28;4464494;32;33424;-84
2022/03/03 09:53:16;;;;;;;16.52;8.50;;;;;;;9.38;35.33;99955.97;4456453;32;32975;-84
2022/03/03 09:55:46;;;;;;;17.75;8.65;;;;;;;8.98;37.21;99957.38;4464842;31;34464;-85
2022/03/03 09:58:17;;;;;;;16.30;8.00;;;;;;;8.98;36.40;99962.66;4470704;32;33865;-85
2022/03/03 10:00:46;;;;;;;12.23;7.12;;;;;;;9.44;34.34;99958.38;4471085;32;33309;-85
2022/03/03 10:03:17;;;;;;;17.67;8.00;;;;;;;9.47;35.53;99960.03;4472338;32;33536;-85
2022/03/03 10:05:47;;;;;;;15.32;7.32;;;;;;;9.86;33.99;99956.81;4469582;32;33447;-85
2022/03/03 10:08:25;;;;;;;19.45;8.93;;;;;;;9.90;34.76;99958.44;4469230;32;33554;-85
2022/03/03 10:10:55;;;;;;;14.85;7.90;;;;;;;9.94;33.62;99954.75;4466353;32;32916;-84
2022/03/03 10:13:23;;;;;;;16.08;8.30;;;;;;;10.13;33.56;99952.28;4456586;32;34368;-85
2022/03/03 10:15:54;;;;;;;16.62;8.48;;;;;;;10.46;33.48;99948.31;4469846;32;33619;-85
2022/03/03 10:18:21;;;;;;;12.82;7.80;;;;;;;10.07;33.74;99960.44;4443975;32;34118;-85
2022/03/03 10:20:52;;;;;;;19.08;8.40;;;;;;;10.59;33.81;99953.09;4471629;32;33908;-85
2022/03/03 10:23:27;;;;;;;18.75;9.30;;;;;;;10.62;34.28;99952.94;4456808;32;33906;-84
2022/03/03 10:25:57;;;;;;;13.45;8.05;;;;;;;10.57;32.95;99950.50;4457124;32;32780;-85
2022/03/03 10:28:28;;;;;;;16.25;7.65;;;;;;;10.46;33.52;99943.03;4460621;32;34012;-85
2022/03/03 10:31:00;;;;;;;17.17;7.68;;;;;;;10.41;32.57;99949.41;4472141;32;33757;-85
2022/03/03 10:33:29;;;;;;;;;;;;;;;10.55;33.66;99939.16;4462068;31;32924;-85
2022/03/03 10:36:03;;;;;;;14.38;8.45;;;;;;;11.02;31.64;99944.22;4471458;32;34580;-85
2022/03/03 10:38:31;;;;;;;17.77;9.43;;;;;;;10.48;34.94;99949.09;4483725;32;33781;-85
2022/03/03 10:40:59;;;;;;;12.30;7.22;;;;;;;10.14;34.02;99941.66;4466295;31;33936;-85
2022/03/03 10:43:26;;;;;;;17.20;8.52;;;;;;;10.65;34.88;99942.28;4469561;32;33884;-84
2022/03/03 10:45:55;;;;;;;16.52;7.78;;;;;;;10.75;33.58;99935.69;4456534;32;31629;-85
2022/03/03 10:48:25;;;;;;;18.33;8.07;;;;;;;11.11;33.16;99935.91;4458585;32;33603;-85
2022/03/03 10:50:58;;;;;;;19.42;8.85;;;;;;;10.69;33.22;99930.66;4469989;32;34021;-85
2022/03/03 10:53:26;;;;;;;18.65;9.40;;;;;;;10.59;33.08;99924.91;4470118;32;33633;-85
2022/03/03 10:56:08;;;;;;;16.30;8.90;;;;;;;10.83;34.39;99924.81;4467839;32;32736;-85
2022/03/03 10:58:46;;;;;;;;;;;;;;;11.02;31.48;99910.72;4456362;32;34063;-85
2022/03/03 11:01:15;;;;;;;17.08;9.10;;;;;;;10.73;31.42;99900.56;4469722;31;34336;-85
2022/03/03 11:03:49;;;;;;;14.10;7.47;;;;;;;10.75;34.02;99911.91;4469779;32;33551;-85
2022/03/03 11:06:25;;;;;;;16.08;7.53;;;;;;;10.62;32.95;99908.91;4461622;32;33402;-85
2022/03/03 11:08:55;;;;;;;11.95;7.53;;;;;;;11.31;32.41;99900.66;4462167;32;33504;-85
2022/03/03 11:11:24;;;;;;;13.90;7.85;;;;;;;11.38;31.71;99896.78;4485304;32;33587;-85
2022/03/03 11:13:53;;;;;;;16.85;9.02;;;;;;;11.17;31.56;99901.25;4472884;32;33837;-84
2022/03/03 11:16:23;;;;;;;16.25;8.75;;;;;;;10.00;33.48;99902.63;4472984;32;34321;-85
2022/03/03 11:18:51;;;;;;;18.30;8.18;;;;;;;10.54;33.77;99883.75;4471580;32;34323;-84
2022/03/03 11:21:20;;;;;;;15.07;7.87;;;;;;;10.92;32.64;99885.63;4464002;32;33288;-85
2022/03/03 11:23:59;;;;;;;19.00;8.18;;;;;;;10.79;32.93;99881.81;4466933;31;33694;-85
2022/03/03 11:26:34;;;;;;;15.13;8.32;;;;;;;10.91;32.74;99890.97;4464036;32;32950;-84
2022/03/03 11:29:12;;;;;;;19.05;8.10;;;;;;;11.17;31.90;99876.63;4481649;32;33549;-84
2022/03/03 11:31:42;;;;;;;13.85;7.78;;;;;;;11.59;31.33;99873.81;4457424;32;33198;-83